Terminal Aerodrome Forecast
Issued by NWS

Home | Current Version | Previous Version | Graphics & Text | Print | Product List | Glossary On
Versions: 1 2 3 4 5 6 7 8 9 10 11 12 13 14 15 16 17 18 19
000
FTUS43 KABR 252055 AAA
TAFPIR
TAF AMD
KPIR 252055Z 2521/2618 28010G18KT P6SM SCT030
     FM252200 28012KT P6SM TSRA BKN050CB
     FM252300 30012KT P6SM -SHRA BKN060
     FM260300 27006KT P6SM SCT200=

USA.gov is the U.S. government's official web portal to all federal, state and local government web resources and services.